EWG9TZ EDDG-LEPA
Flight info
| Callsign | EWG9TZ |
|---|---|
| Flight time | 1h 54m |
| Altitude | 35000 |
| Route | DOMEG1E DOMEG N853 ONUNE N853 QATJA Y841 KENUM DCT GESLO N852 SUTAL DCT GTQ DCT POGOL DCT LASAT DCT MOROK DCT GILIR DCT GEVEA DCT INCUS DCT BALSI DCT RETNO DCT TUPOX DCT MTG DCT DIVKO DCT VATIR DCT PIVUS DCT BODEQ DCT VERSO L129 LUNIK |
| Aircraft | A320/M-SDE3FGHIRWY/LB1 |
Departure
| Time | 2026-04-19 03:02 |
|---|---|
| Airport | Münster Osnabrück Airport (EDDG) |
Arrival
| Time | 2026-04-19 04:57 |
|---|---|
| Airport | Palma de Mallorca Airport (LEPA) |
| Time | Latitude | Longitude | Altitude | Speed | Heading |
|---|---|---|---|---|---|
| 2026-04-19 02:29 | 52.13171 | 7.69375 | 168 ft | 0 kts | 198° |
| 2026-04-19 02:58 | 52.13161 | 7.69361 | 168 ft | 6 kts | 234° |
| 2026-04-19 02:59 | 52.13193 | 7.69321 | 168 ft | 9 kts | 1° |
| 2026-04-19 02:59 | 52.13274 | 7.69306 | 168 ft | 16 kts | 343° |
| 2026-04-19 02:59 | 52.13390 | 7.69246 | 168 ft | 18 kts | 342° |
| 2026-04-19 02:59 | 52.13473 | 7.69360 | 168 ft | 21 kts | 70° |
| 2026-04-19 03:00 | 52.13532 | 7.69623 | 168 ft | 27 kts | 70° |
| 2026-04-19 03:00 | 52.13594 | 7.69915 | 168 ft | 28 kts | 71° |
| 2026-04-19 03:00 | 52.13740 | 7.70017 | 167 ft | 21 kts | 338° |
| 2026-04-19 03:00 | 52.13770 | 7.69931 | 167 ft | 0 kts | 252° |
| 2026-04-19 03:01 | 52.13750 | 7.69831 | 168 ft | 42 kts | 252° |
| 2026-04-19 03:02 | 52.13547 | 7.68876 | 167 ft | 134 kts | 251° |
| 2026-04-19 03:02 | 52.13191 | 7.67187 | 602 ft | 169 kts | 254° |
| 2026-04-19 03:02 | 52.12796 | 7.65270 | 1493 ft | 186 kts | 255° |
| 2026-04-19 03:02 | 52.12351 | 7.63172 | 2355 ft | 207 kts | 255° |
| 2026-04-19 03:03 | 52.11860 | 7.60860 | 2960 ft | 228 kts | 254° |
| 2026-04-19 03:03 | 52.11316 | 7.58295 | 3491 ft | 251 kts | 254° |
| 2026-04-19 03:03 | 52.10723 | 7.55558 | 4328 ft | 260 kts | 250° |
| 2026-04-19 03:03 | 52.09642 | 7.53178 | 5285 ft | 270 kts | 217° |
| 2026-04-19 03:04 | 52.07882 | 7.52101 | 6321 ft | 274 kts | 191° |
| 2026-04-19 03:04 | 52.05998 | 7.51699 | 7375 ft | 273 kts | 189° |
| 2026-04-19 03:04 | 52.04104 | 7.51404 | 8371 ft | 274 kts | 188° |
| 2026-04-19 03:04 | 52.02199 | 7.51134 | 9359 ft | 275 kts | 188° |
| 2026-04-19 03:05 | 52.00279 | 7.51006 | 10295 ft | 280 kts | 180° |
| 2026-04-19 03:05 | 51.98275 | 7.51449 | 10739 ft | 303 kts | 174° |
| 2026-04-19 03:05 | 51.96116 | 7.52032 | 10995 ft | 326 kts | 174° |
| 2026-04-19 03:05 | 51.93803 | 7.52656 | 11330 ft | 345 kts | 174° |
| 2026-04-19 03:06 | 51.91407 | 7.53302 | 12003 ft | 351 kts | 174° |
| 2026-04-19 03:06 | 51.88981 | 7.53954 | 12769 ft | 355 kts | 175° |
| 2026-04-19 03:06 | 51.86533 | 7.54604 | 13546 ft | 358 kts | 175° |
| 2026-04-19 03:06 | 51.84063 | 7.55257 | 14285 ft | 361 kts | 175° |
| 2026-04-19 03:07 | 51.81583 | 7.55910 | 14977 ft | 363 kts | 175° |
| 2026-04-19 03:07 | 51.79080 | 7.56569 | 15702 ft | 364 kts | 175° |
| 2026-04-19 03:07 | 51.76573 | 7.57228 | 16433 ft | 366 kts | 175° |
| 2026-04-19 03:07 | 51.74087 | 7.57880 | 17145 ft | 367 kts | 176° |
| 2026-04-19 03:08 | 51.71553 | 7.58164 | 17843 ft | 364 kts | 186° |
| 2026-04-19 03:08 | 51.69049 | 7.57683 | 18538 ft | 362 kts | 195° |
| 2026-04-19 03:08 | 51.66641 | 7.56559 | 19159 ft | 361 kts | 200° |
| 2026-04-19 03:08 | 51.64237 | 7.55335 | 19791 ft | 362 kts | 200° |
| 2026-04-19 03:09 | 51.61828 | 7.54116 | 20405 ft | 363 kts | 199° |
| 2026-04-19 03:09 | 51.59414 | 7.52902 | 20989 ft | 364 kts | 199° |
| 2026-04-19 03:09 | 51.56953 | 7.51853 | 21557 ft | 367 kts | 195° |
| 2026-04-19 03:09 | 51.54451 | 7.51003 | 22114 ft | 369 kts | 193° |
| 2026-04-19 03:10 | 51.51933 | 7.50218 | 22657 ft | 370 kts | 193° |
| 2026-04-19 03:10 | 51.49387 | 7.49460 | 23171 ft | 372 kts | 193° |
| 2026-04-19 03:10 | 51.46839 | 7.48706 | 23680 ft | 373 kts | 193° |
| 2026-04-19 03:10 | 51.44278 | 7.47935 | 24097 ft | 375 kts | 193° |
| 2026-04-19 03:11 | 51.41709 | 7.47148 | 24492 ft | 376 kts | 193° |
| 2026-04-19 03:11 | 51.39132 | 7.46351 | 24871 ft | 379 kts | 193° |
| 2026-04-19 03:11 | 51.36537 | 7.45546 | 25242 ft | 381 kts | 194° |
| 2026-04-19 03:11 | 51.33931 | 7.44735 | 25603 ft | 383 kts | 194° |
| 2026-04-19 03:12 | 51.31305 | 7.43920 | 25940 ft | 385 kts | 194° |
| 2026-04-19 03:12 | 51.28662 | 7.43105 | 26267 ft | 388 kts | 194° |
| 2026-04-19 03:12 | 51.26001 | 7.42290 | 26583 ft | 390 kts | 194° |
| 2026-04-19 03:12 | 51.23325 | 7.41471 | 26897 ft | 393 kts | 194° |
| 2026-04-19 03:13 | 51.20723 | 7.40674 | 27191 ft | 395 kts | 194° |
| 2026-04-19 03:13 | 51.18015 | 7.39847 | 27490 ft | 397 kts | 194° |
| 2026-04-19 03:13 | 51.15286 | 7.39013 | 27778 ft | 400 kts | 194° |
| 2026-04-19 03:13 | 51.12546 | 7.38177 | 28057 ft | 402 kts | 194° |
| 2026-04-19 03:14 | 51.09794 | 7.37333 | 28326 ft | 404 kts | 194° |
| 2026-04-19 03:14 | 51.07028 | 7.36480 | 28592 ft | 406 kts | 194° |
| 2026-04-19 03:14 | 51.04256 | 7.35631 | 28835 ft | 408 kts | 194° |
| 2026-04-19 03:14 | 51.01463 | 7.34778 | 29065 ft | 409 kts | 194° |
| 2026-04-19 03:15 | 50.98666 | 7.33924 | 29374 ft | 409 kts | 194° |
| 2026-04-19 03:15 | 50.95877 | 7.33078 | 29707 ft | 408 kts | 194° |
| 2026-04-19 03:15 | 50.93089 | 7.32234 | 30038 ft | 407 kts | 195° |
| 2026-04-19 03:15 | 50.90304 | 7.31392 | 30363 ft | 407 kts | 195° |
| 2026-04-19 03:16 | 50.87527 | 7.30552 | 30617 ft | 407 kts | 195° |
| 2026-04-19 03:16 | 50.84738 | 7.29711 | 30850 ft | 408 kts | 195° |
| 2026-04-19 03:16 | 50.81979 | 7.28878 | 31068 ft | 410 kts | 195° |
| 2026-04-19 03:16 | 50.79174 | 7.28032 | 31289 ft | 411 kts | 195° |
| 2026-04-19 03:17 | 50.76355 | 7.27180 | 31509 ft | 412 kts | 195° |
| 2026-04-19 03:17 | 50.73530 | 7.26329 | 31742 ft | 414 kts | 195° |
| 2026-04-19 03:17 | 50.70698 | 7.25477 | 31959 ft | 415 kts | 195° |
| 2026-04-19 03:17 | 50.67861 | 7.24629 | 32186 ft | 416 kts | 195° |
| 2026-04-19 03:18 | 50.66899 | 7.24341 | 32264 ft | 416 kts | 195° |
| 2026-04-19 03:18 | 50.64935 | 7.23754 | 32454 ft | 416 kts | 195° |
| 2026-04-19 03:18 | 50.62085 | 7.22902 | 32699 ft | 417 kts | 195° |
| 2026-04-19 03:18 | 50.59228 | 7.22046 | 32941 ft | 418 kts | 195° |
| 2026-04-19 03:19 | 50.56369 | 7.21191 | 33182 ft | 419 kts | 195° |
| 2026-04-19 03:19 | 50.53497 | 7.20335 | 33414 ft | 420 kts | 196° |
| 2026-04-19 03:19 | 50.50628 | 7.19481 | 33656 ft | 421 kts | 196° |
| 2026-04-19 03:19 | 50.47751 | 7.18622 | 33899 ft | 421 kts | 196° |
| 2026-04-19 03:20 | 50.44865 | 7.17761 | 34148 ft | 422 kts | 196° |
| 2026-04-19 03:20 | 50.41981 | 7.16900 | 34360 ft | 423 kts | 196° |
| 2026-04-19 03:20 | 50.39088 | 7.16041 | 34563 ft | 423 kts | 196° |
| 2026-04-19 03:20 | 50.36188 | 7.15185 | 34756 ft | 424 kts | 195° |
| 2026-04-19 03:21 | 50.33288 | 7.14329 | 34956 ft | 425 kts | 195° |
| 2026-04-19 03:21 | 50.30374 | 7.13469 | 35098 ft | 427 kts | 195° |
| 2026-04-19 03:21 | 50.27448 | 7.12606 | 35139 ft | 429 kts | 195° |
| 2026-04-19 03:22 | 50.21575 | 7.10873 | 35139 ft | 430 kts | 195° |
| 2026-04-19 03:22 | 50.15684 | 7.09150 | 35138 ft | 431 kts | 195° |
| 2026-04-19 03:23 | 50.09780 | 7.07423 | 35137 ft | 431 kts | 195° |
| 2026-04-19 03:23 | 50.03876 | 7.05693 | 35132 ft | 432 kts | 195° |
| 2026-04-19 03:24 | 49.98002 | 7.03979 | 35124 ft | 432 kts | 195° |
| 2026-04-19 03:24 | 49.92083 | 7.02266 | 35116 ft | 432 kts | 195° |
| 2026-04-19 03:25 | 49.86167 | 7.00554 | 35109 ft | 433 kts | 195° |
| 2026-04-19 03:25 | 49.80243 | 6.98835 | 35103 ft | 433 kts | 195° |
| 2026-04-19 03:26 | 49.74316 | 6.97114 | 35099 ft | 434 kts | 195° |
| 2026-04-19 03:26 | 49.68384 | 6.95407 | 35088 ft | 434 kts | 195° |
| 2026-04-19 03:27 | 49.62445 | 6.93700 | 35092 ft | 434 kts | 195° |
| 2026-04-19 03:27 | 49.56505 | 6.92003 | 35088 ft | 434 kts | 195° |
| 2026-04-19 03:28 | 49.50561 | 6.90308 | 35087 ft | 434 kts | 195° |
| 2026-04-19 03:28 | 49.44653 | 6.88627 | 35090 ft | 434 kts | 195° |
| 2026-04-19 03:29 | 49.38712 | 6.86929 | 35090 ft | 434 kts | 196° |
| 2026-04-19 03:29 | 49.32770 | 6.85241 | 35094 ft | 434 kts | 195° |
| 2026-04-19 03:30 | 49.26826 | 6.83564 | 35100 ft | 435 kts | 195° |
| 2026-04-19 03:30 | 49.20875 | 6.81887 | 35100 ft | 435 kts | 195° |
| 2026-04-19 03:31 | 49.14928 | 6.80212 | 35103 ft | 435 kts | 196° |
| 2026-04-19 03:31 | 49.08976 | 6.78536 | 35101 ft | 435 kts | 195° |
| 2026-04-19 03:32 | 49.03983 | 6.77140 | 35115 ft | 435 kts | 195° |
| 2026-04-19 03:32 | 48.98036 | 6.75475 | 35098 ft | 435 kts | 196° |
| 2026-04-19 03:33 | 48.92081 | 6.73810 | 35101 ft | 435 kts | 195° |
| 2026-04-19 03:33 | 48.86124 | 6.72159 | 35097 ft | 435 kts | 195° |
| 2026-04-19 03:34 | 48.80172 | 6.70504 | 35093 ft | 435 kts | 196° |
| 2026-04-19 03:34 | 48.74255 | 6.68856 | 35093 ft | 435 kts | 195° |
| 2026-04-19 03:35 | 48.68296 | 6.67207 | 35094 ft | 435 kts | 195° |
| 2026-04-19 03:35 | 48.62334 | 6.65566 | 35091 ft | 435 kts | 195° |
| 2026-04-19 03:36 | 48.56370 | 6.63937 | 35091 ft | 435 kts | 195° |
| 2026-04-19 03:36 | 48.50417 | 6.62301 | 35091 ft | 435 kts | 195° |
| 2026-04-19 03:37 | 48.44452 | 6.60664 | 35089 ft | 435 kts | 195° |
| 2026-04-19 03:37 | 48.38497 | 6.59033 | 35087 ft | 435 kts | 195° |
| 2026-04-19 03:38 | 48.32529 | 6.57415 | 35088 ft | 436 kts | 195° |
| 2026-04-19 03:38 | 48.26558 | 6.55802 | 35091 ft | 436 kts | 195° |
| 2026-04-19 03:39 | 48.20585 | 6.54179 | 35087 ft | 436 kts | 195° |
| 2026-04-19 03:39 | 48.14643 | 6.52571 | 35092 ft | 437 kts | 195° |
| 2026-04-19 03:40 | 48.08662 | 6.50953 | 35090 ft | 437 kts | 195° |
| 2026-04-19 03:40 | 48.02675 | 6.49339 | 35093 ft | 437 kts | 195° |
| 2026-04-19 03:41 | 47.96687 | 6.47726 | 35100 ft | 438 kts | 195° |
| 2026-04-19 03:41 | 47.90694 | 6.46123 | 35097 ft | 437 kts | 195° |
| 2026-04-19 03:42 | 47.84701 | 6.44531 | 35100 ft | 437 kts | 195° |
| 2026-04-19 03:42 | 47.78712 | 6.42927 | 35103 ft | 437 kts | 195° |
| 2026-04-19 03:43 | 47.72723 | 6.41328 | 35096 ft | 437 kts | 195° |
| 2026-04-19 03:43 | 47.66726 | 6.39748 | 35094 ft | 438 kts | 195° |
| 2026-04-19 03:44 | 47.60721 | 6.38155 | 35097 ft | 438 kts | 195° |
| 2026-04-19 03:44 | 47.54719 | 6.36559 | 35100 ft | 439 kts | 195° |
| 2026-04-19 03:45 | 47.48700 | 6.34979 | 35103 ft | 439 kts | 195° |
| 2026-04-19 03:45 | 47.42680 | 6.33409 | 35109 ft | 440 kts | 195° |
| 2026-04-19 03:46 | 47.36655 | 6.31824 | 35112 ft | 440 kts | 195° |
| 2026-04-19 03:46 | 47.30625 | 6.30233 | 35118 ft | 440 kts | 195° |
| 2026-04-19 03:47 | 47.24599 | 6.28662 | 35117 ft | 440 kts | 195° |
| 2026-04-19 03:47 | 47.18569 | 6.27096 | 35115 ft | 440 kts | 195° |
| 2026-04-19 03:48 | 47.12538 | 6.25527 | 35120 ft | 441 kts | 196° |
| 2026-04-19 03:48 | 47.06532 | 6.23974 | 35121 ft | 442 kts | 195° |
| 2026-04-19 03:49 | 47.00404 | 6.22857 | 35122 ft | 446 kts | 191° |
| 2026-04-19 03:49 | 46.94202 | 6.22173 | 35127 ft | 447 kts | 190° |
| 2026-04-19 03:50 | 46.88005 | 6.21496 | 35125 ft | 447 kts | 191° |
| 2026-04-19 03:50 | 46.81808 | 6.20696 | 35130 ft | 447 kts | 191° |
| 2026-04-19 03:51 | 46.75617 | 6.19840 | 35134 ft | 447 kts | 192° |
| 2026-04-19 03:51 | 46.69419 | 6.18991 | 35133 ft | 448 kts | 192° |
| 2026-04-19 03:52 | 46.63198 | 6.18169 | 35132 ft | 449 kts | 192° |
| 2026-04-19 03:52 | 46.56970 | 6.17358 | 35131 ft | 450 kts | 192° |
| 2026-04-19 03:53 | 46.50728 | 6.16544 | 35133 ft | 450 kts | 192° |
| 2026-04-19 03:53 | 46.44480 | 6.15728 | 35135 ft | 451 kts | 192° |
| 2026-04-19 03:54 | 46.38229 | 6.14907 | 35137 ft | 451 kts | 192° |
| 2026-04-19 03:54 | 46.31957 | 6.14083 | 35139 ft | 452 kts | 192° |
| 2026-04-19 03:55 | 46.25688 | 6.13272 | 35143 ft | 452 kts | 192° |
| 2026-04-19 03:55 | 46.19509 | 6.12143 | 35147 ft | 449 kts | 195° |
| 2026-04-19 03:56 | 46.13355 | 6.10657 | 35149 ft | 448 kts | 197° |
| 2026-04-19 03:56 | 46.07201 | 6.09167 | 35148 ft | 449 kts | 196° |
| 2026-04-19 03:57 | 46.01020 | 6.07786 | 35148 ft | 450 kts | 195° |
| 2026-04-19 03:57 | 45.94837 | 6.06440 | 35151 ft | 450 kts | 195° |
| 2026-04-19 03:58 | 45.88650 | 6.05080 | 35147 ft | 449 kts | 195° |
| 2026-04-19 03:58 | 45.82464 | 6.03720 | 35152 ft | 449 kts | 196° |
| 2026-04-19 03:59 | 45.76283 | 6.02356 | 35155 ft | 449 kts | 195° |
| 2026-04-19 03:59 | 45.70100 | 6.00990 | 35162 ft | 450 kts | 196° |
| 2026-04-19 04:00 | 45.63917 | 5.99624 | 35159 ft | 450 kts | 194° |
| 2026-04-19 04:00 | 45.57732 | 5.98268 | 35169 ft | 450 kts | 195° |
| 2026-04-19 04:01 | 45.51545 | 5.96907 | 35171 ft | 450 kts | 195° |
| 2026-04-19 04:01 | 45.42334 | 5.94593 | 35158 ft | 446 kts | 199° |
| 2026-04-19 04:02 | 45.36304 | 5.92605 | 35150 ft | 445 kts | 200° |
| 2026-04-19 04:02 | 45.30267 | 5.90605 | 35144 ft | 446 kts | 199° |
| 2026-04-19 04:03 | 45.24195 | 5.88702 | 35145 ft | 447 kts | 198° |
| 2026-04-19 04:03 | 45.18112 | 5.86836 | 35147 ft | 447 kts | 198° |
| 2026-04-19 04:04 | 45.12035 | 5.84966 | 35150 ft | 447 kts | 198° |
| 2026-04-19 04:04 | 45.05958 | 5.83091 | 35146 ft | 447 kts | 198° |
| 2026-04-19 04:05 | 44.99883 | 5.81219 | 35143 ft | 447 kts | 198° |
| 2026-04-19 04:05 | 44.93804 | 5.79343 | 35134 ft | 447 kts | 198° |
| 2026-04-19 04:06 | 44.87769 | 5.77491 | 35137 ft | 447 kts | 198° |
| 2026-04-19 04:06 | 44.81694 | 5.75616 | 35133 ft | 447 kts | 198° |
| 2026-04-19 04:07 | 44.75623 | 5.73764 | 35130 ft | 447 kts | 198° |
| 2026-04-19 04:07 | 44.69542 | 5.71920 | 35128 ft | 447 kts | 198° |
| 2026-04-19 04:08 | 44.63469 | 5.70075 | 35129 ft | 447 kts | 198° |
| 2026-04-19 04:08 | 44.57387 | 5.68216 | 35133 ft | 447 kts | 198° |
| 2026-04-19 04:09 | 44.51310 | 5.66371 | 35130 ft | 447 kts | 198° |
| 2026-04-19 04:09 | 44.45223 | 5.64524 | 35132 ft | 447 kts | 198° |
| 2026-04-19 04:10 | 44.39130 | 5.62687 | 35123 ft | 447 kts | 200° |
| 2026-04-19 04:10 | 44.33344 | 5.59802 | 35121 ft | 440 kts | 207° |
| 2026-04-19 04:11 | 44.27676 | 5.56689 | 35110 ft | 441 kts | 207° |
| 2026-04-19 04:11 | 44.21965 | 5.53582 | 35109 ft | 441 kts | 207° |
| 2026-04-19 04:12 | 44.16254 | 5.50469 | 35100 ft | 441 kts | 207° |
| 2026-04-19 04:12 | 44.10543 | 5.47347 | 35100 ft | 441 kts | 207° |
| 2026-04-19 04:13 | 44.04824 | 5.44222 | 35092 ft | 442 kts | 207° |
| 2026-04-19 04:13 | 43.99092 | 5.41120 | 35088 ft | 442 kts | 207° |
| 2026-04-19 04:14 | 43.93361 | 5.38026 | 35079 ft | 442 kts | 207° |
| 2026-04-19 04:14 | 43.87623 | 5.34934 | 35078 ft | 443 kts | 206° |
| 2026-04-19 04:15 | 43.81874 | 5.31838 | 35078 ft | 443 kts | 206° |
| 2026-04-19 04:15 | 43.76126 | 5.28734 | 35074 ft | 443 kts | 206° |
| 2026-04-19 04:16 | 43.70385 | 5.25640 | 35064 ft | 443 kts | 206° |
| 2026-04-19 04:16 | 43.64663 | 5.22582 | 35062 ft | 443 kts | 206° |
| 2026-04-19 04:17 | 43.58910 | 5.19498 | 35055 ft | 443 kts | 206° |
| 2026-04-19 04:17 | 43.53160 | 5.16411 | 35060 ft | 444 kts | 206° |
| 2026-04-19 04:18 | 43.48367 | 5.13860 | 35060 ft | 444 kts | 206° |
| 2026-04-19 04:18 | 43.42591 | 5.10786 | 35063 ft | 445 kts | 206° |
| 2026-04-19 04:19 | 43.37047 | 5.07191 | 35062 ft | 437 kts | 218° |
| 2026-04-19 04:19 | 43.32030 | 5.02486 | 35063 ft | 436 kts | 219° |
| 2026-04-19 04:20 | 43.27033 | 4.97761 | 35064 ft | 437 kts | 219° |
| 2026-04-19 04:20 | 43.22026 | 4.93031 | 35062 ft | 437 kts | 219° |
| 2026-04-19 04:21 | 43.17009 | 4.88326 | 35064 ft | 437 kts | 218° |
| 2026-04-19 04:21 | 43.12003 | 4.83657 | 35060 ft | 438 kts | 218° |
| 2026-04-19 04:22 | 43.06937 | 4.78931 | 35056 ft | 438 kts | 218° |
| 2026-04-19 04:22 | 43.01667 | 4.74685 | 35060 ft | 441 kts | 213° |
| 2026-04-19 04:23 | 42.96298 | 4.70610 | 35051 ft | 441 kts | 213° |
| 2026-04-19 04:23 | 42.90963 | 4.66560 | 35064 ft | 442 kts | 213° |
| 2026-04-19 04:24 | 42.85577 | 4.62494 | 35064 ft | 443 kts | 213° |
| 2026-04-19 04:24 | 42.80177 | 4.58443 | 35068 ft | 443 kts | 213° |
| 2026-04-19 04:25 | 42.74777 | 4.54388 | 35069 ft | 443 kts | 213° |
| 2026-04-19 04:25 | 42.69376 | 4.50331 | 35073 ft | 444 kts | 213° |
| 2026-04-19 04:26 | 42.63959 | 4.46276 | 35072 ft | 444 kts | 213° |
| 2026-04-19 04:26 | 42.58544 | 4.42217 | 35079 ft | 445 kts | 213° |
| 2026-04-19 04:27 | 42.53125 | 4.38158 | 35076 ft | 445 kts | 213° |
| 2026-04-19 04:27 | 42.47724 | 4.34132 | 35092 ft | 446 kts | 213° |
| 2026-04-19 04:28 | 42.42281 | 4.30097 | 35090 ft | 446 kts | 212° |
| 2026-04-19 04:28 | 42.36835 | 4.26058 | 35096 ft | 446 kts | 213° |
| 2026-04-19 04:29 | 42.31387 | 4.22018 | 35096 ft | 447 kts | 213° |
| 2026-04-19 04:29 | 42.25936 | 4.17980 | 35098 ft | 447 kts | 212° |
| 2026-04-19 04:30 | 42.20481 | 4.13957 | 35096 ft | 447 kts | 212° |
| 2026-04-19 04:30 | 42.15020 | 4.09943 | 35100 ft | 447 kts | 212° |
| 2026-04-19 04:31 | 42.09557 | 4.05935 | 35095 ft | 447 kts | 212° |
| 2026-04-19 04:31 | 42.04099 | 4.01926 | 35095 ft | 447 kts | 212° |
| 2026-04-19 04:32 | 41.98636 | 3.97925 | 35096 ft | 447 kts | 212° |
| 2026-04-19 04:32 | 41.93094 | 3.94104 | 35094 ft | 451 kts | 205° |
| 2026-04-19 04:33 | 41.86957 | 3.92108 | 35095 ft | 457 kts | 193° |
| 2026-04-19 04:33 | 41.80682 | 3.90676 | 35099 ft | 457 kts | 193° |
| 2026-04-19 04:34 | 41.74409 | 3.89224 | 35100 ft | 457 kts | 193° |
| 2026-04-19 04:34 | 41.68139 | 3.87770 | 35106 ft | 458 kts | 193° |
| 2026-04-19 04:35 | 41.61861 | 3.86317 | 35110 ft | 458 kts | 193° |
| 2026-04-19 04:35 | 41.55579 | 3.84886 | 35111 ft | 458 kts | 193° |
| 2026-04-19 04:36 | 41.49302 | 3.83455 | 35104 ft | 458 kts | 193° |
| 2026-04-19 04:36 | 41.43066 | 3.82025 | 35097 ft | 457 kts | 193° |
| 2026-04-19 04:37 | 41.36792 | 3.80580 | 35098 ft | 458 kts | 193° |
| 2026-04-19 04:37 | 41.30514 | 3.79126 | 35099 ft | 458 kts | 193° |
| 2026-04-19 04:38 | 41.24229 | 3.77706 | 35104 ft | 458 kts | 193° |
| 2026-04-19 04:38 | 41.17930 | 3.76293 | 35105 ft | 458 kts | 193° |
| 2026-04-19 04:39 | 41.11876 | 3.73941 | 35108 ft | 452 kts | 205° |
| 2026-04-19 04:39 | 41.06013 | 3.70898 | 35103 ft | 452 kts | 204° |
| 2026-04-19 04:40 | 41.00140 | 3.67880 | 35102 ft | 453 kts | 204° |
| 2026-04-19 04:40 | 40.97199 | 3.66364 | 34837 ft | 456 kts | 204° |
| 2026-04-19 04:40 | 40.94242 | 3.64850 | 34192 ft | 455 kts | 204° |
| 2026-04-19 04:41 | 40.91279 | 3.63338 | 33470 ft | 456 kts | 204° |
| 2026-04-19 04:41 | 40.88315 | 3.61823 | 32743 ft | 458 kts | 204° |
| 2026-04-19 04:41 | 40.85337 | 3.60298 | 32039 ft | 459 kts | 204° |
| 2026-04-19 04:41 | 40.82391 | 3.58786 | 31365 ft | 461 kts | 204° |
| 2026-04-19 04:42 | 40.79391 | 3.57249 | 30696 ft | 463 kts | 204° |
| 2026-04-19 04:42 | 40.76381 | 3.55710 | 30016 ft | 465 kts | 204° |
| 2026-04-19 04:42 | 40.73357 | 3.54163 | 29258 ft | 467 kts | 203° |
| 2026-04-19 04:42 | 40.70322 | 3.52612 | 28524 ft | 469 kts | 203° |
| 2026-04-19 04:43 | 40.67275 | 3.51061 | 27802 ft | 471 kts | 203° |
| 2026-04-19 04:43 | 40.64212 | 3.49501 | 27099 ft | 473 kts | 203° |
| 2026-04-19 04:43 | 40.61135 | 3.47939 | 26422 ft | 475 kts | 203° |
| 2026-04-19 04:43 | 40.58040 | 3.46372 | 25751 ft | 475 kts | 203° |
| 2026-04-19 04:44 | 40.54971 | 3.44818 | 25094 ft | 472 kts | 203° |
| 2026-04-19 04:44 | 40.51915 | 3.43270 | 24455 ft | 469 kts | 202° |
| 2026-04-19 04:44 | 40.48880 | 3.41732 | 23838 ft | 465 kts | 202° |
| 2026-04-19 04:44 | 40.45866 | 3.40209 | 23127 ft | 462 kts | 202° |
| 2026-04-19 04:45 | 40.42883 | 3.38693 | 22409 ft | 458 kts | 203° |
| 2026-04-19 04:45 | 40.39941 | 3.37134 | 21707 ft | 454 kts | 204° |
| 2026-04-19 04:45 | 40.37040 | 3.35530 | 21017 ft | 451 kts | 204° |
| 2026-04-19 04:45 | 40.34169 | 3.33899 | 20348 ft | 447 kts | 205° |
| 2026-04-19 04:46 | 40.31324 | 3.32274 | 19687 ft | 444 kts | 205° |
| 2026-04-19 04:46 | 40.28496 | 3.30672 | 19049 ft | 442 kts | 204° |
| 2026-04-19 04:46 | 40.25677 | 3.29094 | 18416 ft | 439 kts | 204° |
| 2026-04-19 04:46 | 40.22873 | 3.27544 | 17701 ft | 435 kts | 204° |
| 2026-04-19 04:47 | 40.20090 | 3.26018 | 17000 ft | 432 kts | 204° |
| 2026-04-19 04:47 | 40.17333 | 3.24512 | 16318 ft | 428 kts | 204° |
| 2026-04-19 04:47 | 40.14595 | 3.23017 | 15644 ft | 424 kts | 204° |
| 2026-04-19 04:47 | 40.11885 | 3.21532 | 14987 ft | 421 kts | 204° |
| 2026-04-19 04:48 | 40.09229 | 3.20073 | 14355 ft | 417 kts | 204° |
| 2026-04-19 04:48 | 40.06567 | 3.18609 | 13699 ft | 414 kts | 204° |
| 2026-04-19 04:48 | 40.03926 | 3.17157 | 12990 ft | 410 kts | 204° |
| 2026-04-19 04:48 | 40.01314 | 3.15721 | 12303 ft | 405 kts | 204° |
| 2026-04-19 04:49 | 39.98729 | 3.14298 | 11634 ft | 400 kts | 204° |
| 2026-04-19 04:49 | 39.96181 | 3.12898 | 10982 ft | 395 kts | 204° |
| 2026-04-19 04:49 | 39.93660 | 3.11518 | 10394 ft | 391 kts | 203° |
| 2026-04-19 04:49 | 39.91158 | 3.10151 | 9807 ft | 389 kts | 203° |
| 2026-04-19 04:50 | 39.88680 | 3.08797 | 9077 ft | 385 kts | 203° |
| 2026-04-19 04:50 | 39.86865 | 3.07807 | 8549 ft | 382 kts | 203° |
| 2026-04-19 04:50 | 39.84426 | 3.06477 | 7853 ft | 377 kts | 203° |
| 2026-04-19 04:50 | 39.82016 | 3.05165 | 7165 ft | 373 kts | 203° |
| 2026-04-19 04:51 | 39.79632 | 3.03867 | 6497 ft | 369 kts | 203° |
| 2026-04-19 04:51 | 39.77279 | 3.02583 | 5790 ft | 365 kts | 203° |
| 2026-04-19 04:51 | 39.74952 | 3.01317 | 5095 ft | 360 kts | 202° |
| 2026-04-19 04:51 | 39.72655 | 3.00071 | 4390 ft | 355 kts | 202° |
| 2026-04-19 04:52 | 39.70393 | 2.98844 | 3698 ft | 349 kts | 203° |
| 2026-04-19 04:52 | 39.68192 | 2.97651 | 3167 ft | 329 kts | 203° |
| 2026-04-19 04:52 | 39.66197 | 2.96568 | 3018 ft | 293 kts | 204° |
| 2026-04-19 04:52 | 39.64642 | 2.95210 | 3002 ft | 257 kts | 229° |
| 2026-04-19 04:53 | 39.63686 | 2.93421 | 2942 ft | 229 kts | 238° |
| 2026-04-19 04:53 | 39.62870 | 2.91722 | 2733 ft | 215 kts | 239° |
| 2026-04-19 04:53 | 39.62108 | 2.90108 | 2473 ft | 205 kts | 239° |
| 2026-04-19 04:53 | 39.61388 | 2.88578 | 2223 ft | 192 kts | 239° |
| 2026-04-19 04:54 | 39.60713 | 2.87144 | 1967 ft | 181 kts | 239° |
| 2026-04-19 04:54 | 39.60070 | 2.85777 | 1722 ft | 172 kts | 239° |
| 2026-04-19 04:54 | 39.59461 | 2.84483 | 1498 ft | 166 kts | 239° |
| 2026-04-19 04:54 | 39.58879 | 2.83248 | 1290 ft | 153 kts | 239° |
| 2026-04-19 04:55 | 39.58348 | 2.82122 | 1092 ft | 142 kts | 239° |
| 2026-04-19 04:55 | 39.57842 | 2.81049 | 915 ft | 138 kts | 239° |
| 2026-04-19 04:55 | 39.57343 | 2.79996 | 715 ft | 137 kts | 239° |
| 2026-04-19 04:55 | 39.56848 | 2.78939 | 552 ft | 137 kts | 238° |
| 2026-04-19 04:56 | 39.56353 | 2.77887 | 368 ft | 137 kts | 238° |
| 2026-04-19 04:56 | 39.55858 | 2.76836 | 200 ft | 137 kts | 239° |
| 2026-04-19 04:56 | 39.55363 | 2.75788 | 38 ft | 134 kts | 238° |
| 2026-04-19 04:56 | 39.54957 | 2.74926 | 37 ft | 88 kts | 238° |
| 2026-04-19 04:57 | 39.54719 | 2.74422 | 38 ft | 53 kts | 238° |
| 2026-04-19 04:57 | 39.54565 | 2.74082 | 38 ft | 34 kts | 248° |
| 2026-04-19 04:57 | 39.54551 | 2.73835 | 38 ft | 23 kts | 270° |
| 2026-04-19 04:57 | 39.54599 | 2.73640 | 38 ft | 24 kts | 328° |
| 2026-04-19 04:58 | 39.54679 | 2.73718 | 38 ft | 17 kts | 59° |
| 2026-04-19 04:58 | 39.54751 | 2.73858 | 38 ft | 20 kts | 56° |
| 2026-04-19 04:58 | 39.54844 | 2.73997 | 38 ft | 19 kts | 9° |
| 2026-04-19 04:58 | 39.54931 | 2.73932 | 37 ft | 15 kts | 328° |
| 2026-04-19 04:59 | 39.55024 | 2.73861 | 38 ft | 15 kts | 329° |
| 2026-04-19 04:59 | 39.55018 | 2.73763 | 36 ft | 12 kts | 239° |
| 2026-04-19 04:59 | 39.55001 | 2.73725 | 36 ft | 0 kts | 239° |